sensor_id;sensor_type;location;lat;lon;timestamp;P1;durP1;ratioP1;P2;durP2;ratioP2
47866;SDS011;33628;50.806;11.586;2022-09-28T00:04:46;1.00;;;0.80;;
47866;SDS011;33628;50.806;11.586;2022-09-28T00:09:38;1.23;;;0.70;;
47866;SDS011;33628;50.806;11.586;2022-09-28T00:12:04;0.85;;;0.73;;
47866;SDS011;33628;50.806;11.586;2022-09-28T00:14:31;1.40;;;0.90;;
47866;SDS011;33628;50.806;11.586;2022-09-28T00:21:50;1.00;;;0.90;;
47866;SDS011;33628;50.806;11.586;2022-09-28T00:24:16;3.40;;;1.00;;
47866;SDS011;33628;50.806;11.586;2022-09-28T00:26:45;1.80;;;0.95;;
47866;SDS011;33628;50.806;11.586;2022-09-28T00:29:14;1.20;;;1.10;;
47866;SDS011;33628;50.806;11.586;2022-09-28T00:31:42;1.35;;;0.90;;
47866;SDS011;33628;50.806;11.586;2022-09-28T00:34:10;1.33;;;1.17;;
47866;SDS011;33628;50.806;11.586;2022-09-28T00:36:37;1.73;;;1.00;;
47866;SDS011;33628;50.806;11.586;2022-09-28T00:39:04;2.60;;;1.27;;
47866;SDS011;33628;50.806;11.586;2022-09-28T00:41:32;1.30;;;1.15;;
47866;SDS011;33628;50.806;11.586;2022-09-28T00:47:13;2.75;;;1.20;;
47866;SDS011;33628;50.806;11.586;2022-09-28T00:49:52;2.08;;;1.52;;
47866;SDS011;33628;50.806;11.586;2022-09-28T00:52:21;1.52;;;1.30;;
47866;SDS011;33628;50.806;11.586;2022-09-28T00:54:51;2.63;;;1.52;;
47866;SDS011;33628;50.806;11.586;2022-09-28T00:57:18;3.28;;;1.40;;
47866;SDS011;33628;50.806;11.586;2022-09-28T00:59:44;2.72;;;1.23;;
47866;SDS011;33628;50.806;11.586;2022-09-28T01:04:37;2.53;;;1.13;;
47866;SDS011;33628;50.806;11.586;2022-09-28T01:07:05;1.80;;;1.33;;
47866;SDS011;33628;50.806;11.586;2022-09-28T01:09:34;3.83;;;1.38;;
47866;SDS011;33628;50.806;11.586;2022-09-28T01:12:02;2.90;;;1.27;;
47866;SDS011;33628;50.806;11.586;2022-09-28T01:14:28;1.58;;;1.25;;
47866;SDS011;33628;50.806;11.586;2022-09-28T01:16:56;1.90;;;1.20;;
47866;SDS011;33628;50.806;11.586;2022-09-28T01:19:46;1.85;;;1.05;;
47866;SDS011;33628;50.806;11.586;2022-09-28T01:22:25;3.15;;;1.17;;
47866;SDS011;33628;50.806;11.586;2022-09-28T01:24:53;2.42;;;1.30;;
47866;SDS011;33628;50.806;11.586;2022-09-28T01:27:23;2.38;;;1.33;;
47866;SDS011;33628;50.806;11.586;2022-09-28T01:29:54;2.75;;;1.10;;
47866;SDS011;33628;50.806;11.586;2022-09-28T01:32:26;3.03;;;1.15;;
47866;SDS011;33628;50.806;11.586;2022-09-28T01:34:57;2.83;;;1.40;;
47866;SDS011;33628;50.806;11.586;2022-09-28T01:37:28;2.80;;;1.58;;
47866;SDS011;33628;50.806;11.586;2022-09-28T01:39:58;1.75;;;1.50;;
47866;SDS011;33628;50.806;11.586;2022-09-28T01:42:30;2.67;;;1.58;;
47866;SDS011;33628;50.806;11.586;2022-09-28T01:45:00;2.08;;;1.80;;
47866;SDS011;33628;50.806;11.586;2022-09-28T01:47:30;1.67;;;1.38;;
47866;SDS011;33628;50.806;11.586;2022-09-28T01:49:58;1.83;;;1.73;;
47866;SDS011;33628;50.806;11.586;2022-09-28T01:52:27;1.42;;;1.30;;
47866;SDS011;33628;50.806;11.586;2022-09-28T01:54:57;2.95;;;1.83;;
47866;SDS011;33628;50.806;11.586;2022-09-28T01:57:32;1.50;;;1.40;;
47866;SDS011;33628;50.806;11.586;2022-09-28T02:00:03;3.25;;;2.05;;
47866;SDS011;33628;50.806;11.586;2022-09-28T02:02:40;6.18;;;1.77;;
47866;SDS011;33628;50.806;11.586;2022-09-28T02:05:12;2.85;;;1.70;;
47866;SDS011;33628;50.806;11.586;2022-09-28T02:07:40;2.97;;;1.13;;
47866;SDS011;33628;50.806;11.586;2022-09-28T02:10:12;1.20;;;1.00;;
47866;SDS011;33628;50.806;11.586;2022-09-28T02:12:42;1.75;;;1.30;;
47866;SDS011;33628;50.806;11.586;2022-09-28T02:15:11;1.42;;;1.23;;
47866;SDS011;33628;50.806;11.586;2022-09-28T02:17:40;2.72;;;2.00;;
47866;SDS011;33628;50.806;11.586;2022-09-28T02:20:06;4.50;;;2.00;;
47866;SDS011;33628;50.806;11.586;2022-09-28T02:22:33;6.40;;;2.55;;
47866;SDS011;33628;50.806;11.586;2022-09-28T02:25:05;5.78;;;3.22;;
47866;SDS011;33628;50.806;11.586;2022-09-28T02:27:35;3.95;;;2.72;;
47866;SDS011;33628;50.806;11.586;2022-09-28T02:30:06;3.75;;;2.50;;
47866;SDS011;33628;50.806;11.586;2022-09-28T02:32:34;6.70;;;3.47;;
47866;SDS011;33628;50.806;11.586;2022-09-28T02:35:06;4.20;;;2.47;;
47866;SDS011;33628;50.806;11.586;2022-09-28T02:37:33;3.50;;;2.40;;
47866;SDS011;33628;50.806;11.586;2022-09-28T02:39:59;2.65;;;2.33;;
47866;SDS011;33628;50.806;11.586;2022-09-28T02:42:26;2.53;;;2.30;;
47866;SDS011;33628;50.806;11.586;2022-09-28T02:45:04;6.97;;;2.10;;
47866;SDS011;33628;50.806;11.586;2022-09-28T02:50:35;1.77;;;1.50;;
47866;SDS011;33628;50.806;11.586;2022-09-28T02:53:10;5.40;;;2.22;;
47866;SDS011;33628;50.806;11.586;2022-09-28T02:55:52;1.48;;;1.38;;
47866;SDS011;33628;50.806;11.586;2022-09-28T02:58:29;8.15;;;1.80;;
47866;SDS011;33628;50.806;11.586;2022-09-28T03:01:02;6.15;;;1.45;;
47866;SDS011;33628;50.806;11.586;2022-09-28T03:03:35;1.70;;;1.58;;
47866;SDS011;33628;50.806;11.586;2022-09-28T03:06:06;4.00;;;1.67;;
47866;SDS011;33628;50.806;11.586;2022-09-28T03:08:42;3.05;;;1.70;;
47866;SDS011;33628;50.806;11.586;2022-09-28T03:11:13;3.38;;;1.83;;
47866;SDS011;33628;50.806;11.586;2022-09-28T03:13:45;2.28;;;1.92;;
47866;SDS011;33628;50.806;11.586;2022-09-28T03:16:14;2.88;;;2.30;;
47866;SDS011;33628;50.806;11.586;2022-09-28T03:18:43;8.02;;;2.30;;
47866;SDS011;33628;50.806;11.586;2022-09-28T03:21:09;4.75;;;2.60;;
47866;SDS011;33628;50.806;11.586;2022-09-28T03:23:37;5.65;;;2.83;;
47866;SDS011;33628;50.806;11.586;2022-09-28T03:26:03;4.47;;;3.28;;
47866;SDS011;33628;50.806;11.586;2022-09-28T03:28:29;9.48;;;3.60;;
47866;SDS011;33628;50.806;11.586;2022-09-28T03:30:56;5.40;;;3.22;;
47866;SDS011;33628;50.806;11.586;2022-09-28T03:35:49;6.18;;;3.78;;
47866;SDS011;33628;50.806;11.586;2022-09-28T03:38:16;5.43;;;3.88;;
47866;SDS011;33628;50.806;11.586;2022-09-28T03:40:42;5.72;;;4.50;;
47866;SDS011;33628;50.806;11.586;2022-09-28T03:43:09;10.27;;;3.60;;
47866;SDS011;33628;50.806;11.586;2022-09-28T03:45:35;3.88;;;2.85;;
47866;SDS011;33628;50.806;11.586;2022-09-28T03:50:29;2.88;;;1.92;;
47866;SDS011;33628;50.806;11.586;2022-09-28T03:53:00;12.07;;;6.90;;
47866;SDS011;33628;50.806;11.586;2022-09-28T03:55:27;7.75;;;5.90;;
47866;SDS011;33628;50.806;11.586;2022-09-28T04:00:21;5.43;;;2.75;;
47866;SDS011;33628;50.806;11.586;2022-09-28T04:02:48;4.88;;;2.08;;
47866;SDS011;33628;50.806;11.586;2022-09-28T04:05:14;3.92;;;2.40;;
47866;SDS011;33628;50.806;11.586;2022-09-28T04:07:42;3.53;;;2.08;;
47866;SDS011;33628;50.806;11.586;2022-09-28T04:10:08;3.83;;;2.20;;
47866;SDS011;33628;50.806;11.586;2022-09-28T04:12:34;4.15;;;2.08;;
47866;SDS011;33628;50.806;11.586;2022-09-28T04:15:00;3.47;;;2.45;;
47866;SDS011;33628;50.806;11.586;2022-09-28T04:17:27;4.40;;;2.65;;
47866;SDS011;33628;50.806;11.586;2022-09-28T04:19:53;4.47;;;3.08;;
47866;SDS011;33628;50.806;11.586;2022-09-28T04:22:45;4.60;;;3.55;;
47866;SDS011;33628;50.806;11.586;2022-09-28T04:25:11;5.10;;;3.58;;
47866;SDS011;33628;50.806;11.586;2022-09-28T04:30:22;8.80;;;4.82;;
47866;SDS011;33628;50.806;11.586;2022-09-28T04:32:49;8.98;;;3.78;;
47866;SDS011;33628;50.806;11.586;2022-09-28T04:35:16;10.00;;;4.07;;
47866;SDS011;33628;50.806;11.586;2022-09-28T04:37:42;9.40;;;4.43;;
47866;SDS011;33628;50.806;11.586;2022-09-28T04:40:10;7.97;;;3.85;;
47866;SDS011;33628;50.806;11.586;2022-09-28T04:42:36;5.97;;;3.95;;
47866;SDS011;33628;50.806;11.586;2022-09-28T04:47:30;7.18;;;3.72;;
47866;SDS011;33628;50.806;11.586;2022-09-28T04:50:08;7.97;;;5.10;;
47866;SDS011;33628;50.806;11.586;2022-09-28T04:52:54;14.10;;;6.50;;
47866;SDS011;33628;50.806;11.586;2022-09-28T04:57:47;7.25;;;6.07;;
47866;SDS011;33628;50.806;11.586;2022-09-28T05:00:14;6.55;;;5.70;;
47866;SDS011;33628;50.806;11.586;2022-09-28T05:02:52;7.88;;;5.88;;
47866;SDS011;33628;50.806;11.586;2022-09-28T05:05:42;10.32;;;6.03;;
47866;SDS011;33628;50.806;11.586;2022-09-28T05:08:27;10.75;;;6.75;;
47866;SDS011;33628;50.806;11.586;2022-09-28T05:10:59;7.43;;;6.05;;
47866;SDS011;33628;50.806;11.586;2022-09-28T05:13:26;10.05;;;6.28;;
47866;SDS011;33628;50.806;11.586;2022-09-28T05:15:53;10.02;;;6.43;;
47866;SDS011;33628;50.806;11.586;2022-09-28T05:18:21;8.77;;;6.03;;
47866;SDS011;33628;50.806;11.586;2022-09-28T05:20:56;9.95;;;6.38;;
47866;SDS011;33628;50.806;11.586;2022-09-28T05:23:23;10.75;;;6.50;;
47866;SDS011;33628;50.806;11.586;2022-09-28T05:25:53;11.82;;;8.25;;
47866;SDS011;33628;50.806;11.586;2022-09-28T05:28:26;9.50;;;6.30;;
47866;SDS011;33628;50.806;11.586;2022-09-28T05:31:29;12.45;;;7.05;;
47866;SDS011;33628;50.806;11.586;2022-09-28T05:34:25;11.85;;;7.40;;
47866;SDS011;33628;50.806;11.586;2022-09-28T05:36:55;13.20;;;8.20;;
47866;SDS011;33628;50.806;11.586;2022-09-28T05:39:21;14.35;;;9.88;;
47866;SDS011;33628;50.806;11.586;2022-09-28T05:44:14;11.25;;;8.25;;
47866;SDS011;33628;50.806;11.586;2022-09-28T05:46:41;12.73;;;9.13;;
47866;SDS011;33628;50.806;11.586;2022-09-28T05:49:08;15.70;;;8.95;;
47866;SDS011;33628;50.806;11.586;2022-09-28T05:51:35;12.77;;;8.10;;
47866;SDS011;33628;50.806;11.586;2022-09-28T05:54:01;12.05;;;8.27;;
47866;SDS011;33628;50.806;11.586;2022-09-28T05:56:28;11.35;;;7.93;;
47866;SDS011;33628;50.806;11.586;2022-09-28T05:58:55;11.35;;;8.45;;
47866;SDS011;33628;50.806;11.586;2022-09-28T06:01:26;13.05;;;7.72;;
47866;SDS011;33628;50.806;11.586;2022-09-28T06:03:53;10.05;;;7.70;;
47866;SDS011;33628;50.806;11.586;2022-09-28T06:06:20;12.35;;;7.55;;
47866;SDS011;33628;50.806;11.586;2022-09-28T06:08:47;14.63;;;8.40;;
47866;SDS011;33628;50.806;11.586;2022-09-28T06:11:32;27.73;;;9.27;;
47866;SDS011;33628;50.806;11.586;2022-09-28T06:14:04;13.88;;;8.45;;
47866;SDS011;33628;50.806;11.586;2022-09-28T06:16:32;16.00;;;9.85;;
47866;SDS011;33628;50.806;11.586;2022-09-28T06:18:59;17.48;;;9.57;;
47866;SDS011;33628;50.806;11.586;2022-09-28T06:21:42;13.43;;;8.68;;
47866;SDS011;33628;50.806;11.586;2022-09-28T06:24:08;11.15;;;8.60;;
47866;SDS011;33628;50.806;11.586;2022-09-28T06:26:35;13.13;;;7.95;;
47866;SDS011;33628;50.806;11.586;2022-09-28T06:29:03;15.70;;;7.70;;
47866;SDS011;33628;50.806;11.586;2022-09-28T06:33:57;10.10;;;7.07;;
47866;SDS011;33628;50.806;11.586;2022-09-28T06:36:27;37.85;;;18.33;;
47866;SDS011;33628;50.806;11.586;2022-09-28T06:38:53;95.22;;;41.63;;
47866;SDS011;33628;50.806;11.586;2022-09-28T06:41:19;31.83;;;16.73;;
47866;SDS011;33628;50.806;11.586;2022-09-28T06:43:46;14.35;;;9.13;;
47866;SDS011;33628;50.806;11.586;2022-09-28T06:46:30;16.00;;;9.20;;
47866;SDS011;33628;50.806;11.586;2022-09-28T06:49:10;14.52;;;9.75;;
47866;SDS011;33628;50.806;11.586;2022-09-28T06:51:56;11.10;;;8.35;;
47866;SDS011;33628;50.806;11.586;2022-09-28T06:54:39;13.20;;;8.63;;
47866;SDS011;33628;50.806;11.586;2022-09-28T06:57:19;12.85;;;8.13;;
47866;SDS011;33628;50.806;11.586;2022-09-28T06:59:46;10.30;;;7.80;;
47866;SDS011;33628;50.806;11.586;2022-09-28T07:02:12;10.68;;;8.10;;
47866;SDS011;33628;50.806;11.586;2022-09-28T07:04:46;15.50;;;9.15;;
47866;SDS011;33628;50.806;11.586;2022-09-28T07:07:31;12.23;;;8.30;;
47866;SDS011;33628;50.806;11.586;2022-09-28T07:10:09;12.73;;;8.50;;
47866;SDS011;33628;50.806;11.586;2022-09-28T07:13:02;18.70;;;10.32;;
47866;SDS011;33628;50.806;11.586;2022-09-28T07:15:52;11.55;;;6.85;;
47866;SDS011;33628;50.806;11.586;2022-09-28T07:18:18;15.38;;;9.48;;
47866;SDS011;33628;50.806;11.586;2022-09-28T07:20:46;14.25;;;10.65;;
47866;SDS011;33628;50.806;11.586;2022-09-28T07:23:13;13.52;;;8.90;;
47866;SDS011;33628;50.806;11.586;2022-09-28T07:26:12;19.38;;;10.27;;
47866;SDS011;33628;50.806;11.586;2022-09-28T07:28:50;12.00;;;8.73;;
47866;SDS011;33628;50.806;11.586;2022-09-28T07:31:28;16.02;;;8.63;;
47866;SDS011;33628;50.806;11.586;2022-09-28T07:34:20;10.95;;;7.63;;
47866;SDS011;33628;50.806;11.586;2022-09-28T07:37:10;8.98;;;7.82;;
47866;SDS011;33628;50.806;11.586;2022-09-28T07:39:38;10.15;;;7.88;;
47866;SDS011;33628;50.806;11.586;2022-09-28T07:42:23;10.57;;;8.13;;
47866;SDS011;33628;50.806;11.586;2022-09-28T07:44:52;11.40;;;7.85;;
47866;SDS011;33628;50.806;11.586;2022-09-28T07:47:18;13.45;;;6.90;;
47866;SDS011;33628;50.806;11.586;2022-09-28T07:50:11;10.10;;;6.35;;
47866;SDS011;33628;50.806;11.586;2022-09-28T07:52:53;11.23;;;6.43;;
47866;SDS011;33628;50.806;11.586;2022-09-28T07:55:29;9.80;;;7.05;;
47866;SDS011;33628;50.806;11.586;2022-09-28T07:58:19;8.00;;;5.60;;
47866;SDS011;33628;50.806;11.586;2022-09-28T08:03:36;10.70;;;4.85;;
47866;SDS011;33628;50.806;11.586;2022-09-28T08:06:04;4.85;;;2.92;;
47866;SDS011;33628;50.806;11.586;2022-09-28T08:08:33;6.07;;;3.58;;
47866;SDS011;33628;50.806;11.586;2022-09-28T08:11:00;5.72;;;3.92;;
47866;SDS011;33628;50.806;11.586;2022-09-28T08:13:53;8.63;;;4.32;;
47866;SDS011;33628;50.806;11.586;2022-09-28T08:16:42;9.80;;;6.38;;
47866;SDS011;33628;50.806;11.586;2022-09-28T08:19:33;9.32;;;5.50;;
47866;SDS011;33628;50.806;11.586;2022-09-28T08:22:18;3.80;;;3.40;;
47866;SDS011;33628;50.806;11.586;2022-09-28T08:24:50;4.72;;;4.22;;
47866;SDS011;33628;50.806;11.586;2022-09-28T08:27:17;5.40;;;2.90;;
47866;SDS011;33628;50.806;11.586;2022-09-28T08:29:44;5.13;;;3.58;;
47866;SDS011;33628;50.806;11.586;2022-09-28T08:32:36;6.22;;;3.20;;
47866;SDS011;33628;50.806;11.586;2022-09-28T08:35:21;4.85;;;3.80;;
47866;SDS011;33628;50.806;11.586;2022-09-28T08:38:07;6.25;;;3.63;;
47866;SDS011;33628;50.806;11.586;2022-09-28T08:41:10;7.15;;;4.13;;
47866;SDS011;33628;50.806;11.586;2022-09-28T08:44:13;7.07;;;3.75;;
47866;SDS011;33628;50.806;11.586;2022-09-28T08:47:04;4.55;;;3.63;;
47866;SDS011;33628;50.806;11.586;2022-09-28T08:49:49;8.63;;;3.87;;
47866;SDS011;33628;50.806;11.586;2022-09-28T08:52:28;5.45;;;3.55;;
47866;SDS011;33628;50.806;11.586;2022-09-28T08:55:09;5.32;;;3.40;;
47866;SDS011;33628;50.806;11.586;2022-09-28T08:57:44;6.47;;;3.50;;
47866;SDS011;33628;50.806;11.586;2022-09-28T09:00:16;4.07;;;2.45;;
47866;SDS011;33628;50.806;11.586;2022-09-28T09:02:45;3.67;;;1.90;;
47866;SDS011;33628;50.806;11.586;2022-09-28T09:05:15;3.88;;;1.23;;
47866;SDS011;33628;50.806;11.586;2022-09-28T09:08:04;2.78;;;1.63;;
47866;SDS011;33628;50.806;11.586;2022-09-28T09:10:49;3.20;;;2.10;;
47866;SDS011;33628;50.806;11.586;2022-09-28T09:13:40;3.58;;;1.88;;
47866;SDS011;33628;50.806;11.586;2022-09-28T09:16:40;4.10;;;1.90;;
47866;SDS011;33628;50.806;11.586;2022-09-28T09:19:28;3.05;;;1.48;;
47866;SDS011;33628;50.806;11.586;2022-09-28T09:22:16;4.78;;;1.83;;
47866;SDS011;33628;50.806;11.586;2022-09-28T09:24:47;2.33;;;1.70;;
47866;SDS011;33628;50.806;11.586;2022-09-28T09:27:26;1.52;;;1.10;;
47866;SDS011;33628;50.806;11.586;2022-09-28T09:30:09;1.33;;;1.10;;
47866;SDS011;33628;50.806;11.586;2022-09-28T09:32:46;0.65;;;0.60;;
47866;SDS011;33628;50.806;11.586;2022-09-28T09:35:47;1.45;;;0.60;;
47866;SDS011;33628;50.806;11.586;2022-09-28T09:38:47;0.63;;;0.50;;
47866;SDS011;33628;50.806;11.586;2022-09-28T09:41:38;0.60;;;0.57;;
47866;SDS011;33628;50.806;11.586;2022-09-28T09:44:47;1.80;;;0.60;;
47866;SDS011;33628;50.806;11.586;2022-09-28T09:47:18;1.00;;;0.60;;
47866;SDS011;33628;50.806;11.586;2022-09-28T09:49:53;0.75;;;0.60;;
47866;SDS011;33628;50.806;11.586;2022-09-28T09:52:23;0.60;;;0.55;;
47866;SDS011;33628;50.806;11.586;2022-09-28T09:54:53;0.90;;;0.52;;
47866;SDS011;33628;50.806;11.586;2022-09-28T10:00:38;0.60;;;0.52;;
47866;SDS011;33628;50.806;11.586;2022-09-28T10:03:20;0.50;;;0.40;;
47866;SDS011;33628;50.806;11.586;2022-09-28T10:05:51;0.25;;;0.25;;
47866;SDS011;33628;50.806;11.586;2022-09-28T10:08:21;0.28;;;0.20;;
47866;SDS011;33628;50.806;11.586;2022-09-28T10:10:50;1.40;;;0.43;;
47866;SDS011;33628;50.806;11.586;2022-09-28T10:13:19;1.38;;;0.47;;
47866;SDS011;33628;50.806;11.586;2022-09-28T10:15:47;0.30;;;0.30;;
47866;SDS011;33628;50.806;11.586;2022-09-28T10:18:23;0.50;;;0.40;;
47866;SDS011;33628;50.806;11.586;2022-09-28T10:21:10;0.40;;;0.40;;
47866;SDS011;33628;50.806;11.586;2022-09-28T10:23:54;0.57;;;0.50;;
47866;SDS011;33628;50.806;11.586;2022-09-28T10:26:22;2.25;;;0.60;;
47866;SDS011;33628;50.806;11.586;2022-09-28T10:28:51;0.47;;;0.47;;
47866;SDS011;33628;50.806;11.586;2022-09-28T10:31:31;0.60;;;0.60;;
47866;SDS011;33628;50.806;11.586;2022-09-28T10:34:01;1.00;;;0.80;;
47866;SDS011;33628;50.806;11.586;2022-09-28T10:36:27;0.88;;;0.70;;
47866;SDS011;33628;50.806;11.586;2022-09-28T10:38:54;1.20;;;0.80;;
47866;SDS011;33628;50.806;11.586;2022-09-28T10:41:25;0.88;;;0.68;;
47866;SDS011;33628;50.806;11.586;2022-09-28T10:43:56;0.60;;;0.60;;
47866;SDS011;33628;50.806;11.586;2022-09-28T10:46:58;2.75;;;0.60;;
47866;SDS011;33628;50.806;11.586;2022-09-28T10:49:28;1.52;;;0.80;;
47866;SDS011;33628;50.806;11.586;2022-09-28T10:51:57;1.08;;;0.98;;
47866;SDS011;33628;50.806;11.586;2022-09-28T10:54:29;0.93;;;0.93;;
47866;SDS011;33628;50.806;11.586;2022-09-28T10:56:58;0.80;;;0.80;;
47866;SDS011;33628;50.806;11.586;2022-09-28T10:59:42;1.73;;;0.80;;
47866;SDS011;33628;50.806;11.586;2022-09-28T11:02:31;0.85;;;0.50;;
47866;SDS011;33628;50.806;11.586;2022-09-28T11:05:04;1.50;;;0.90;;
47866;SDS011;33628;50.806;11.586;2022-09-28T11:07:43;1.85;;;0.60;;
47866;SDS011;33628;50.806;11.586;2022-09-28T11:10:16;1.27;;;0.75;;
47866;SDS011;33628;50.806;11.586;2022-09-28T11:12:43;1.38;;;0.65;;
47866;SDS011;33628;50.806;11.586;2022-09-28T11:15:15;1.42;;;0.70;;
47866;SDS011;33628;50.806;11.586;2022-09-28T11:17:42;0.60;;;0.60;;
47866;SDS011;33628;50.806;11.586;2022-09-28T11:20:28;0.80;;;0.60;;
47866;SDS011;33628;50.806;11.586;2022-09-28T11:22:59;0.80;;;0.80;;
47866;SDS011;33628;50.806;11.586;2022-09-28T11:25:30;2.72;;;0.82;;
47866;SDS011;33628;50.806;11.586;2022-09-28T11:27:59;2.03;;;0.88;;
47866;SDS011;33628;50.806;11.586;2022-09-28T11:30:29;1.75;;;0.70;;
47866;SDS011;33628;50.806;11.586;2022-09-28T11:33:31;1.88;;;0.70;;
47866;SDS011;33628;50.806;11.586;2022-09-28T11:36:24;3.83;;;0.60;;
47866;SDS011;33628;50.806;11.586;2022-09-28T11:38:57;1.58;;;0.63;;
47866;SDS011;33628;50.806;11.586;2022-09-28T11:41:47;2.45;;;0.65;;
47866;SDS011;33628;50.806;11.586;2022-09-28T11:44:35;2.03;;;0.60;;
47866;SDS011;33628;50.806;11.586;2022-09-28T11:47:10;0.50;;;0.43;;
47866;SDS011;33628;50.806;11.586;2022-09-28T11:50:00;1.48;;;0.45;;
47866;SDS011;33628;50.806;11.586;2022-09-28T11:52:31;1.17;;;0.50;;
47866;SDS011;33628;50.806;11.586;2022-09-28T11:55:03;2.20;;;0.50;;
47866;SDS011;33628;50.806;11.586;2022-09-28T11:57:33;0.70;;;0.40;;
47866;SDS011;33628;50.806;11.586;2022-09-28T12:00:03;4.15;;;0.80;;
47866;SDS011;33628;50.806;11.586;2022-09-28T12:02:44;0.75;;;0.63;;
47866;SDS011;33628;50.806;11.586;2022-09-28T12:05:15;2.42;;;0.98;;
47866;SDS011;33628;50.806;11.586;2022-09-28T12:07:47;1.92;;;1.05;;
47866;SDS011;33628;50.806;11.586;2022-09-28T12:10:36;1.23;;;0.80;;
47866;SDS011;33628;50.806;11.586;2022-09-28T12:13:05;0.73;;;0.60;;
47866;SDS011;33628;50.806;11.586;2022-09-28T12:15:37;2.35;;;1.10;;
47866;SDS011;33628;50.806;11.586;2022-09-28T12:18:09;2.08;;;1.00;;
47866;SDS011;33628;50.806;11.586;2022-09-28T12:20:39;3.00;;;1.02;;
47866;SDS011;33628;50.806;11.586;2022-09-28T12:23:10;4.72;;;1.00;;
47866;SDS011;33628;50.806;11.586;2022-09-28T12:25:41;2.33;;;1.00;;
47866;SDS011;33628;50.806;11.586;2022-09-28T12:28:15;2.50;;;1.40;;
47866;SDS011;33628;50.806;11.586;2022-09-28T12:30:43;3.33;;;1.52;;
47866;SDS011;33628;50.806;11.586;2022-09-28T12:33:11;5.55;;;1.95;;
47866;SDS011;33628;50.806;11.586;2022-09-28T12:35:43;2.78;;;1.40;;
47866;SDS011;33628;50.806;11.586;2022-09-28T12:38:20;1.52;;;0.95;;
47866;SDS011;33628;50.806;11.586;2022-09-28T12:43:25;1.05;;;1.00;;
47866;SDS011;33628;50.806;11.586;2022-09-28T12:49:12;2.20;;;1.02;;
47866;SDS011;33628;50.806;11.586;2022-09-28T12:51:46;3.92;;;1.08;;
47866;SDS011;33628;50.806;11.586;2022-09-28T12:54:21;2.28;;;0.95;;
47866;SDS011;33628;50.806;11.586;2022-09-28T12:56:56;5.60;;;1.20;;
47866;SDS011;33628;50.806;11.586;2022-09-28T12:59:34;1.23;;;0.73;;
47866;SDS011;33628;50.806;11.586;2022-09-28T13:02:19;3.15;;;1.00;;
47866;SDS011;33628;50.806;11.586;2022-09-28T13:05:00;1.95;;;0.95;;
47866;SDS011;33628;50.806;11.586;2022-09-28T13:07:37;1.08;;;0.65;;
47866;SDS011;33628;50.806;11.586;2022-09-28T13:10:15;1.23;;;0.85;;
47866;SDS011;33628;50.806;11.586;2022-09-28T13:12:48;1.50;;;0.88;;
47866;SDS011;33628;50.806;11.586;2022-09-28T13:15:27;1.15;;;0.95;;
47866;SDS011;33628;50.806;11.586;2022-09-28T13:17:59;1.58;;;0.93;;
47866;SDS011;33628;50.806;11.586;2022-09-28T13:20:36;1.65;;;0.82;;
47866;SDS011;33628;50.806;11.586;2022-09-28T13:23:10;1.90;;;0.90;;
47866;SDS011;33628;50.806;11.586;2022-09-28T13:25:43;1.88;;;1.30;;
47866;SDS011;33628;50.806;11.586;2022-09-28T13:28:14;4.50;;;1.33;;
47866;SDS011;33628;50.806;11.586;2022-09-28T13:30:43;2.45;;;1.08;;
47866;SDS011;33628;50.806;11.586;2022-09-28T13:33:13;3.95;;;1.25;;
47866;SDS011;33628;50.806;11.586;2022-09-28T13:35:43;1.10;;;1.00;;
47866;SDS011;33628;50.806;11.586;2022-09-28T13:41:14;1.88;;;0.88;;
47866;SDS011;33628;50.806;11.586;2022-09-28T13:46:45;2.28;;;1.40;;
47866;SDS011;33628;50.806;11.586;2022-09-28T13:49:20;3.95;;;1.48;;
47866;SDS011;33628;50.806;11.586;2022-09-28T13:51:55;3.25;;;1.70;;
47866;SDS011;33628;50.806;11.586;2022-09-28T13:54:29;1.35;;;1.20;;
47866;SDS011;33628;50.806;11.586;2022-09-28T13:57:23;1.33;;;1.00;;
47866;SDS011;33628;50.806;11.586;2022-09-28T14:00:00;0.88;;;0.88;;
47866;SDS011;33628;50.806;11.586;2022-09-28T14:02:39;1.08;;;0.93;;
47866;SDS011;33628;50.806;11.586;2022-09-28T14:08:17;0.75;;;0.70;;
47866;SDS011;33628;50.806;11.586;2022-09-28T14:10:56;1.00;;;0.90;;
47866;SDS011;33628;50.806;11.586;2022-09-28T14:14:04;0.73;;;0.73;;
47866;SDS011;33628;50.806;11.586;2022-09-28T14:16:43;1.73;;;1.03;;
47866;SDS011;33628;50.806;11.586;2022-09-28T14:19:11;2.40;;;1.00;;
47866;SDS011;33628;50.806;11.586;2022-09-28T14:21:48;1.27;;;0.90;;
47866;SDS011;33628;50.806;11.586;2022-09-28T14:24:23;2.28;;;1.00;;
47866;SDS011;33628;50.806;11.586;2022-09-28T14:30:04;2.95;;;1.35;;
47866;SDS011;33628;50.806;11.586;2022-09-28T14:32:32;1.75;;;1.10;;
47866;SDS011;33628;50.806;11.586;2022-09-28T14:35:01;1.73;;;1.10;;
47866;SDS011;33628;50.806;11.586;2022-09-28T14:37:29;1.98;;;1.45;;
47866;SDS011;33628;50.806;11.586;2022-09-28T14:40:16;1.77;;;1.42;;
47866;SDS011;33628;50.806;11.586;2022-09-28T14:48:19;3.15;;;1.52;;
47866;SDS011;33628;50.806;11.586;2022-09-28T14:50:47;2.47;;;1.58;;
47866;SDS011;33628;50.806;11.586;2022-09-28T14:53:21;3.55;;;1.52;;
47866;SDS011;33628;50.806;11.586;2022-09-28T14:55:50;2.28;;;1.50;;
47866;SDS011;33628;50.806;11.586;2022-09-28T14:58:21;1.50;;;1.20;;
47866;SDS011;33628;50.806;11.586;2022-09-28T15:00:53;2.33;;;1.60;;
47866;SDS011;33628;50.806;11.586;2022-09-28T15:03:26;5.37;;;3.63;;
47866;SDS011;33628;50.806;11.586;2022-09-28T15:05:56;3.97;;;1.75;;
47866;SDS011;33628;50.806;11.586;2022-09-28T15:08:33;3.85;;;2.30;;
47866;SDS011;33628;50.806;11.586;2022-09-28T15:11:00;2.10;;;1.52;;
47866;SDS011;33628;50.806;11.586;2022-09-28T15:15:56;2.30;;;1.80;;
47866;SDS011;33628;50.806;11.586;2022-09-28T15:18:45;2.65;;;1.98;;
47866;SDS011;33628;50.806;11.586;2022-09-28T15:21:29;2.35;;;1.63;;
47866;SDS011;33628;50.806;11.586;2022-09-28T15:23:58;2.38;;;1.10;;
47866;SDS011;33628;50.806;11.586;2022-09-28T15:26:27;1.88;;;1.27;;
47866;SDS011;33628;50.806;11.586;2022-09-28T15:28:55;1.17;;;1.08;;
47866;SDS011;33628;50.806;11.586;2022-09-28T15:31:25;1.85;;;1.20;;
47866;SDS011;33628;50.806;11.586;2022-09-28T15:33:52;1.90;;;1.02;;
47866;SDS011;33628;50.806;11.586;2022-09-28T15:36:37;1.45;;;1.33;;
47866;SDS011;33628;50.806;11.586;2022-09-28T15:39:04;1.38;;;1.20;;
47866;SDS011;33628;50.806;11.586;2022-09-28T15:41:34;2.88;;;1.95;;
47866;SDS011;33628;50.806;11.586;2022-09-28T15:44:15;7.97;;;5.22;;
47866;SDS011;33628;50.806;11.586;2022-09-28T15:46:49;4.50;;;1.98;;
47866;SDS011;33628;50.806;11.586;2022-09-28T15:49:21;3.80;;;2.00;;
47866;SDS011;33628;50.806;11.586;2022-09-28T15:51:50;4.70;;;2.30;;
47866;SDS011;33628;50.806;11.586;2022-09-28T15:54:19;5.07;;;2.83;;
47866;SDS011;33628;50.806;11.586;2022-09-28T15:56:49;7.20;;;3.63;;
47866;SDS011;33628;50.806;11.586;2022-09-28T15:59:17;2.83;;;2.00;;
47866;SDS011;33628;50.806;11.586;2022-09-28T16:01:57;3.38;;;2.28;;
47866;SDS011;33628;50.806;11.586;2022-09-28T16:04:31;2.75;;;2.10;;
47866;SDS011;33628;50.806;11.586;2022-09-28T16:07:03;4.60;;;3.13;;
47866;SDS011;33628;50.806;11.586;2022-09-28T16:09:30;6.80;;;5.40;;
47866;SDS011;33628;50.806;11.586;2022-09-28T16:11:57;2.65;;;2.15;;
47866;SDS011;33628;50.806;11.586;2022-09-28T16:14:23;3.25;;;2.83;;
47866;SDS011;33628;50.806;11.586;2022-09-28T16:16:51;2.67;;;2.10;;
47866;SDS011;33628;50.806;11.586;2022-09-28T16:19:22;2.55;;;2.10;;
47866;SDS011;33628;50.806;11.586;2022-09-28T16:21:49;3.17;;;2.50;;